KJSO

Cherokee County Airport

Jacksonville, Texas, USA
METAR KJSO 241155Z AUTO 17008KT 5SM BR OVC004 20/20 A2996 RMK AO2 T01970197
Observed Flight Rules
Feb-24 @ 11:55 UTC (24 minutes ago) Instrument Flight Rules
Wind Visibility Clouds Conditions
170° at 8 knots 5 miles
  • Overcast at 400' AGL
  • Mist
Temperatures Readings
Current 20°C / 68°F
Dewpoint 20°C / 68°F
Humidity 100%
Altimeter 29.96" Hg
Pressure 1015 hPa
Elevation 206
METAR KJSO 241155Z AUTO 17008KT 5SM BR OVC004 20/20 A2996 RMK AO2 T01970197
Observed Flight Rules
Feb-24 @ 11:55 UTC
(24 minutes ago)
LIFR
Wind Visibility
170° at 8 knots 5 miles
Clouds
  • Overcast at 400' AGL
Conditions
  • Mist
Temperature Dewpoint
20°C / 68°F 20°C / 68°F
Humidity Altimeter Pressure
100% 29.96" Hg 1015 hPa